sensor_id;sensor_type;location;lat;lon;timestamp;P1;durP1;ratioP1;P2;durP2;ratioP2
10637;SDS011;47007;49.252;8.904;2022-07-29T00:01:13;3.60;;;2.83;;
10637;SDS011;47007;49.252;8.904;2022-07-29T00:03:45;2.70;;;2.50;;
10637;SDS011;47007;49.252;8.904;2022-07-29T00:06:11;4.22;;;2.67;;
10637;SDS011;47007;49.252;8.904;2022-07-29T00:08:38;2.92;;;2.72;;
10637;SDS011;47007;49.252;8.904;2022-07-29T00:11:05;2.70;;;2.50;;
10637;SDS011;47007;49.252;8.904;2022-07-29T00:13:32;2.83;;;2.58;;
10637;SDS011;47007;49.252;8.904;2022-07-29T00:15:59;3.15;;;2.50;;
10637;SDS011;47007;49.252;8.904;2022-07-29T00:18:30;2.85;;;2.60;;
10637;SDS011;47007;49.252;8.904;2022-07-29T00:20:57;3.22;;;2.92;;
10637;SDS011;47007;49.252;8.904;2022-07-29T00:23:24;3.55;;;2.90;;
10637;SDS011;47007;49.252;8.904;2022-07-29T00:25:51;3.53;;;2.92;;
10637;SDS011;47007;49.252;8.904;2022-07-29T00:28:18;3.08;;;2.88;;
10637;SDS011;47007;49.252;8.904;2022-07-29T00:30:44;3.65;;;3.13;;
10637;SDS011;47007;49.252;8.904;2022-07-29T00:33:11;4.00;;;2.75;;
10637;SDS011;47007;49.252;8.904;2022-07-29T00:35:38;3.45;;;3.10;;
10637;SDS011;47007;49.252;8.904;2022-07-29T00:38:14;3.65;;;3.13;;
10637;SDS011;47007;49.252;8.904;2022-07-29T00:40:43;3.53;;;3.08;;
10637;SDS011;47007;49.252;8.904;2022-07-29T00:43:11;4.20;;;3.35;;
10637;SDS011;47007;49.252;8.904;2022-07-29T00:45:39;3.50;;;3.20;;
10637;SDS011;47007;49.252;8.904;2022-07-29T00:48:09;3.53;;;3.25;;
10637;SDS011;47007;49.252;8.904;2022-07-29T00:50:37;3.42;;;3.10;;
10637;SDS011;47007;49.252;8.904;2022-07-29T00:53:05;3.80;;;3.50;;
10637;SDS011;47007;49.252;8.904;2022-07-29T00:55:33;3.67;;;3.38;;
10637;SDS011;47007;49.252;8.904;2022-07-29T00:58:00;3.90;;;3.63;;
10637;SDS011;47007;49.252;8.904;2022-07-29T01:00:28;5.47;;;3.53;;
10637;SDS011;47007;49.252;8.904;2022-07-29T01:02:55;3.65;;;3.35;;
10637;SDS011;47007;49.252;8.904;2022-07-29T01:05:23;3.63;;;3.33;;
10637;SDS011;47007;49.252;8.904;2022-07-29T01:08:13;4.13;;;3.72;;
10637;SDS011;47007;49.252;8.904;2022-07-29T01:10:41;3.45;;;3.15;;
10637;SDS011;47007;49.252;8.904;2022-07-29T01:13:13;3.53;;;3.22;;
10637;SDS011;47007;49.252;8.904;2022-07-29T01:15:54;3.38;;;3.15;;
10637;SDS011;47007;49.252;8.904;2022-07-29T01:18:34;4.85;;;3.47;;
10637;SDS011;47007;49.252;8.904;2022-07-29T01:21:27;4.55;;;3.60;;
10637;SDS011;47007;49.252;8.904;2022-07-29T01:29:52;3.63;;;3.28;;
10637;SDS011;47007;49.252;8.904;2022-07-29T01:32:24;3.83;;;3.20;;
10637;SDS011;47007;49.252;8.904;2022-07-29T01:35:38;3.55;;;3.25;;
10637;SDS011;47007;49.252;8.904;2022-07-29T01:38:16;3.75;;;3.10;;
10637;SDS011;47007;49.252;8.904;2022-07-29T01:40:51;4.03;;;3.65;;
10637;SDS011;47007;49.252;8.904;2022-07-29T01:43:33;4.88;;;3.75;;
10637;SDS011;47007;49.252;8.904;2022-07-29T01:46:09;3.80;;;3.50;;
10637;SDS011;47007;49.252;8.904;2022-07-29T01:48:47;3.95;;;3.50;;
10637;SDS011;47007;49.252;8.904;2022-07-29T01:51:20;3.83;;;3.28;;
10637;SDS011;47007;49.252;8.904;2022-07-29T01:54:04;4.43;;;3.70;;
10637;SDS011;47007;49.252;8.904;2022-07-29T01:56:36;3.72;;;3.22;;
10637;SDS011;47007;49.252;8.904;2022-07-29T01:59:06;4.57;;;3.30;;
10637;SDS011;47007;49.252;8.904;2022-07-29T02:01:35;3.13;;;2.80;;
10637;SDS011;47007;49.252;8.904;2022-07-29T02:04:04;3.47;;;3.17;;
10637;SDS011;47007;49.252;8.904;2022-07-29T02:06:33;3.33;;;3.00;;
10637;SDS011;47007;49.252;8.904;2022-07-29T02:09:03;3.95;;;3.38;;
10637;SDS011;47007;49.252;8.904;2022-07-29T02:11:33;4.03;;;3.42;;
10637;SDS011;47007;49.252;8.904;2022-07-29T02:14:03;3.53;;;3.33;;
10637;SDS011;47007;49.252;8.904;2022-07-29T02:16:31;3.35;;;3.10;;
10637;SDS011;47007;49.252;8.904;2022-07-29T02:19:02;3.75;;;3.30;;
10637;SDS011;47007;49.252;8.904;2022-07-29T02:21:29;3.30;;;3.00;;
10637;SDS011;47007;49.252;8.904;2022-07-29T02:23:59;4.10;;;3.75;;
10637;SDS011;47007;49.252;8.904;2022-07-29T02:26:27;3.00;;;2.80;;
10637;SDS011;47007;49.252;8.904;2022-07-29T02:28:57;3.05;;;2.85;;
10637;SDS011;47007;49.252;8.904;2022-07-29T02:31:26;3.25;;;2.95;;
10637;SDS011;47007;49.252;8.904;2022-07-29T02:33:56;4.03;;;3.72;;
10637;SDS011;47007;49.252;8.904;2022-07-29T02:36:29;3.72;;;3.42;;
10637;SDS011;47007;49.252;8.904;2022-07-29T02:38:58;3.42;;;3.13;;
10637;SDS011;47007;49.252;8.904;2022-07-29T02:44:27;3.72;;;3.42;;
10637;SDS011;47007;49.252;8.904;2022-07-29T02:52:37;3.70;;;3.40;;
10637;SDS011;47007;49.252;8.904;2022-07-29T02:55:37;3.97;;;3.67;;
10637;SDS011;47007;49.252;8.904;2022-07-29T03:01:02;5.95;;;3.47;;
10637;SDS011;47007;49.252;8.904;2022-07-29T03:03:35;3.55;;;3.25;;
10637;SDS011;47007;49.252;8.904;2022-07-29T03:06:03;3.67;;;3.38;;
10637;SDS011;47007;49.252;8.904;2022-07-29T03:08:32;3.28;;;3.08;;
10637;SDS011;47007;49.252;8.904;2022-07-29T03:11:01;3.20;;;2.90;;
10637;SDS011;47007;49.252;8.904;2022-07-29T03:13:28;5.60;;;3.60;;
10637;SDS011;47007;49.252;8.904;2022-07-29T03:15:56;3.10;;;2.90;;
10637;SDS011;47007;49.252;8.904;2022-07-29T03:18:25;3.13;;;2.92;;
10637;SDS011;47007;49.252;8.904;2022-07-29T03:20:52;3.10;;;2.90;;
10637;SDS011;47007;49.252;8.904;2022-07-29T03:23:19;3.45;;;3.25;;
10637;SDS011;47007;49.252;8.904;2022-07-29T03:25:49;3.65;;;3.35;;
10637;SDS011;47007;49.252;8.904;2022-07-29T03:28:16;3.10;;;2.90;;
10637;SDS011;47007;49.252;8.904;2022-07-29T03:30:44;4.72;;;3.50;;
10637;SDS011;47007;49.252;8.904;2022-07-29T03:33:11;4.95;;;2.95;;
10637;SDS011;47007;49.252;8.904;2022-07-29T03:35:39;3.50;;;3.20;;
10637;SDS011;47007;49.252;8.904;2022-07-29T03:38:09;3.45;;;3.15;;
10637;SDS011;47007;49.252;8.904;2022-07-29T03:40:46;3.45;;;3.13;;
10637;SDS011;47007;49.252;8.904;2022-07-29T03:43:17;3.80;;;3.45;;
10637;SDS011;47007;49.252;8.904;2022-07-29T03:45:47;3.53;;;3.22;;
10637;SDS011;47007;49.252;8.904;2022-07-29T03:48:18;4.25;;;3.70;;
10637;SDS011;47007;49.252;8.904;2022-07-29T03:50:47;3.50;;;3.20;;
10637;SDS011;47007;49.252;8.904;2022-07-29T03:53:15;4.90;;;3.42;;
10637;SDS011;47007;49.252;8.904;2022-07-29T03:55:43;3.75;;;3.45;;
10637;SDS011;47007;49.252;8.904;2022-07-29T03:58:13;3.30;;;2.97;;
10637;SDS011;47007;49.252;8.904;2022-07-29T04:00:41;4.03;;;3.60;;
10637;SDS011;47007;49.252;8.904;2022-07-29T04:03:09;4.10;;;3.72;;
10637;SDS011;47007;49.252;8.904;2022-07-29T04:05:37;4.68;;;3.50;;
10637;SDS011;47007;49.252;8.904;2022-07-29T04:08:04;3.78;;;3.40;;
10637;SDS011;47007;49.252;8.904;2022-07-29T04:10:31;5.20;;;3.40;;
10637;SDS011;47007;49.252;8.904;2022-07-29T04:13:01;3.10;;;2.90;;
10637;SDS011;47007;49.252;8.904;2022-07-29T04:15:28;3.05;;;2.85;;
10637;SDS011;47007;49.252;8.904;2022-07-29T04:17:56;5.22;;;3.92;;
10637;SDS011;47007;49.252;8.904;2022-07-29T04:20:23;3.38;;;3.17;;
10637;SDS011;47007;49.252;8.904;2022-07-29T04:22:49;4.13;;;3.78;;
10637;SDS011;47007;49.252;8.904;2022-07-29T04:25:16;3.75;;;3.45;;
10637;SDS011;47007;49.252;8.904;2022-07-29T04:27:43;4.32;;;2.85;;
10637;SDS011;47007;49.252;8.904;2022-07-29T04:30:26;3.60;;;3.33;;
10637;SDS011;47007;49.252;8.904;2022-07-29T04:32:53;3.70;;;3.40;;
10637;SDS011;47007;49.252;8.904;2022-07-29T04:35:20;3.85;;;3.45;;
10637;SDS011;47007;49.252;8.904;2022-07-29T04:37:47;4.65;;;3.38;;
10637;SDS011;47007;49.252;8.904;2022-07-29T04:40:14;3.33;;;3.03;;
10637;SDS011;47007;49.252;8.904;2022-07-29T04:42:41;3.45;;;3.17;;
10637;SDS011;47007;49.252;8.904;2022-07-29T04:45:12;3.80;;;3.50;;
10637;SDS011;47007;49.252;8.904;2022-07-29T04:47:39;3.38;;;3.10;;
10637;SDS011;47007;49.252;8.904;2022-07-29T04:50:06;2.97;;;2.78;;
10637;SDS011;47007;49.252;8.904;2022-07-29T04:52:34;3.20;;;3.00;;
10637;SDS011;47007;49.252;8.904;2022-07-29T04:55:01;3.50;;;3.20;;
10637;SDS011;47007;49.252;8.904;2022-07-29T04:57:29;3.42;;;3.13;;
10637;SDS011;47007;49.252;8.904;2022-07-29T04:59:56;4.93;;;3.70;;
10637;SDS011;47007;49.252;8.904;2022-07-29T05:02:23;5.43;;;3.28;;
10637;SDS011;47007;49.252;8.904;2022-07-29T05:04:50;3.60;;;3.30;;
10637;SDS011;47007;49.252;8.904;2022-07-29T05:07:16;3.78;;;3.33;;
10637;SDS011;47007;49.252;8.904;2022-07-29T05:09:43;3.33;;;3.13;;
10637;SDS011;47007;49.252;8.904;2022-07-29T05:12:13;3.10;;;2.90;;
10637;SDS011;47007;49.252;8.904;2022-07-29T05:14:39;3.53;;;3.22;;
10637;SDS011;47007;49.252;8.904;2022-07-29T05:17:06;3.17;;;2.85;;
10637;SDS011;47007;49.252;8.904;2022-07-29T05:19:33;3.28;;;2.97;;
10637;SDS011;47007;49.252;8.904;2022-07-29T05:22:04;3.17;;;2.80;;
10637;SDS011;47007;49.252;8.904;2022-07-29T05:24:31;2.92;;;2.72;;
10637;SDS011;47007;49.252;8.904;2022-07-29T05:26:58;2.50;;;2.40;;
10637;SDS011;47007;49.252;8.904;2022-07-29T05:29:25;2.72;;;2.53;;
10637;SDS011;47007;49.252;8.904;2022-07-29T05:32:10;2.72;;;2.53;;
10637;SDS011;47007;49.252;8.904;2022-07-29T05:34:37;6.00;;;2.53;;
10637;SDS011;47007;49.252;8.904;2022-07-29T05:37:18;4.90;;;2.60;;
10637;SDS011;47007;49.252;8.904;2022-07-29T05:39:45;2.90;;;2.70;;
10637;SDS011;47007;49.252;8.904;2022-07-29T05:42:23;2.53;;;2.33;;
10637;SDS011;47007;49.252;8.904;2022-07-29T05:44:51;3.88;;;2.45;;
10637;SDS011;47007;49.252;8.904;2022-07-29T05:47:17;2.83;;;2.60;;
10637;SDS011;47007;49.252;8.904;2022-07-29T05:49:44;3.35;;;2.72;;
10637;SDS011;47007;49.252;8.904;2022-07-29T05:52:11;3.95;;;2.95;;
10637;SDS011;47007;49.252;8.904;2022-07-29T05:54:39;2.42;;;2.20;;
10637;SDS011;47007;49.252;8.904;2022-07-29T05:57:06;2.72;;;2.50;;
10637;SDS011;47007;49.252;8.904;2022-07-29T05:59:36;3.38;;;2.50;;
10637;SDS011;47007;49.252;8.904;2022-07-29T06:02:03;3.17;;;2.97;;
10637;SDS011;47007;49.252;8.904;2022-07-29T06:04:31;2.80;;;2.60;;
10637;SDS011;47007;49.252;8.904;2022-07-29T06:07:00;3.50;;;2.58;;
10637;SDS011;47007;49.252;8.904;2022-07-29T06:09:26;2.60;;;2.33;;
10637;SDS011;47007;49.252;8.904;2022-07-29T06:11:54;3.25;;;2.65;;
10637;SDS011;47007;49.252;8.904;2022-07-29T06:14:21;2.95;;;2.72;;
10637;SDS011;47007;49.252;8.904;2022-07-29T06:16:48;2.83;;;2.63;;
10637;SDS011;47007;49.252;8.904;2022-07-29T06:19:15;2.78;;;2.58;;
10637;SDS011;47007;49.252;8.904;2022-07-29T06:21:42;2.72;;;2.53;;
10637;SDS011;47007;49.252;8.904;2022-07-29T06:24:13;4.55;;;3.40;;
10637;SDS011;47007;49.252;8.904;2022-07-29T06:26:41;3.10;;;2.90;;
10637;SDS011;47007;49.252;8.904;2022-07-29T06:29:09;4.43;;;3.30;;
10637;SDS011;47007;49.252;8.904;2022-07-29T06:31:39;3.08;;;2.80;;
10637;SDS011;47007;49.252;8.904;2022-07-29T06:34:06;3.25;;;3.00;;
10637;SDS011;47007;49.252;8.904;2022-07-29T06:36:36;3.72;;;3.10;;
10637;SDS011;47007;49.252;8.904;2022-07-29T06:39:27;3.63;;;3.33;;
10637;SDS011;47007;49.252;8.904;2022-07-29T06:41:54;3.58;;;3.22;;
10637;SDS011;47007;49.252;8.904;2022-07-29T06:44:23;4.28;;;3.10;;
10637;SDS011;47007;49.252;8.904;2022-07-29T06:46:50;3.20;;;2.90;;
10637;SDS011;47007;49.252;8.904;2022-07-29T06:49:18;3.75;;;3.08;;
10637;SDS011;47007;49.252;8.904;2022-07-29T06:51:44;4.40;;;2.97;;
10637;SDS011;47007;49.252;8.904;2022-07-29T06:54:11;3.17;;;2.78;;
10637;SDS011;47007;49.252;8.904;2022-07-29T06:56:38;3.20;;;2.97;;
10637;SDS011;47007;49.252;8.904;2022-07-29T06:59:08;2.80;;;2.60;;
10637;SDS011;47007;49.252;8.904;2022-07-29T07:01:36;2.83;;;2.55;;
10637;SDS011;47007;49.252;8.904;2022-07-29T07:04:08;4.57;;;2.80;;
10637;SDS011;47007;49.252;8.904;2022-07-29T07:06:37;2.90;;;2.70;;
10637;SDS011;47007;49.252;8.904;2022-07-29T07:09:04;3.22;;;2.92;;
10637;SDS011;47007;49.252;8.904;2022-07-29T07:11:31;2.83;;;2.60;;
10637;SDS011;47007;49.252;8.904;2022-07-29T07:13:58;2.70;;;2.50;;
10637;SDS011;47007;49.252;8.904;2022-07-29T07:16:29;2.80;;;2.60;;
10637;SDS011;47007;49.252;8.904;2022-07-29T07:18:57;4.25;;;2.95;;
10637;SDS011;47007;49.252;8.904;2022-07-29T07:21:24;4.22;;;3.30;;
10637;SDS011;47007;49.252;8.904;2022-07-29T07:23:51;4.00;;;3.20;;
10637;SDS011;47007;49.252;8.904;2022-07-29T07:26:17;3.78;;;3.10;;
10637;SDS011;47007;49.252;8.904;2022-07-29T07:28:44;5.88;;;3.35;;
10637;SDS011;47007;49.252;8.904;2022-07-29T07:31:11;4.15;;;3.10;;
10637;SDS011;47007;49.252;8.904;2022-07-29T07:33:38;4.05;;;3.10;;
10637;SDS011;47007;49.252;8.904;2022-07-29T07:36:05;4.10;;;3.00;;
10637;SDS011;47007;49.252;8.904;2022-07-29T07:38:32;6.05;;;3.17;;
10637;SDS011;47007;49.252;8.904;2022-07-29T07:40:58;5.32;;;3.25;;
10637;SDS011;47007;49.252;8.904;2022-07-29T07:43:26;3.22;;;2.70;;
10637;SDS011;47007;49.252;8.904;2022-07-29T07:45:53;3.40;;;2.88;;
10637;SDS011;47007;49.252;8.904;2022-07-29T07:48:20;4.13;;;3.65;;
10637;SDS011;47007;49.252;8.904;2022-07-29T07:50:46;4.28;;;3.28;;
10637;SDS011;47007;49.252;8.904;2022-07-29T07:53:15;4.70;;;3.50;;
10637;SDS011;47007;49.252;8.904;2022-07-29T07:55:42;3.75;;;3.30;;
10637;SDS011;47007;49.252;8.904;2022-07-29T07:58:29;3.92;;;3.53;;
10637;SDS011;47007;49.252;8.904;2022-07-29T08:00:56;4.40;;;3.30;;
10637;SDS011;47007;49.252;8.904;2022-07-29T08:03:23;4.68;;;4.05;;
10637;SDS011;47007;49.252;8.904;2022-07-29T08:05:50;3.33;;;3.10;;
10637;SDS011;47007;49.252;8.904;2022-07-29T08:08:18;5.63;;;3.55;;
10637;SDS011;47007;49.252;8.904;2022-07-29T08:10:45;3.85;;;3.30;;
10637;SDS011;47007;49.252;8.904;2022-07-29T08:13:28;4.05;;;3.65;;
10637;SDS011;47007;49.252;8.904;2022-07-29T08:15:56;3.20;;;2.90;;
10637;SDS011;47007;49.252;8.904;2022-07-29T08:18:44;4.10;;;3.40;;
10637;SDS011;47007;49.252;8.904;2022-07-29T08:21:13;4.07;;;3.30;;
10637;SDS011;47007;49.252;8.904;2022-07-29T08:23:42;4.50;;;4.10;;
10637;SDS011;47007;49.252;8.904;2022-07-29T08:26:25;3.88;;;3.53;;
10637;SDS011;47007;49.252;8.904;2022-07-29T08:28:52;4.72;;;3.60;;
10637;SDS011;47007;49.252;8.904;2022-07-29T08:31:18;3.75;;;3.00;;
10637;SDS011;47007;49.252;8.904;2022-07-29T08:33:45;5.72;;;3.40;;
10637;SDS011;47007;49.252;8.904;2022-07-29T08:36:12;3.28;;;2.97;;
10637;SDS011;47007;49.252;8.904;2022-07-29T08:38:39;3.67;;;3.05;;
10637;SDS011;47007;49.252;8.904;2022-07-29T08:41:06;4.50;;;3.83;;
10637;SDS011;47007;49.252;8.904;2022-07-29T08:43:33;4.63;;;3.40;;
10637;SDS011;47007;49.252;8.904;2022-07-29T08:46:03;6.93;;;4.10;;
10637;SDS011;47007;49.252;8.904;2022-07-29T08:48:30;4.38;;;3.58;;
10637;SDS011;47007;49.252;8.904;2022-07-29T08:50:58;4.40;;;3.30;;
10637;SDS011;47007;49.252;8.904;2022-07-29T08:53:27;5.05;;;3.58;;
10637;SDS011;47007;49.252;8.904;2022-07-29T08:55:55;5.10;;;3.25;;
10637;SDS011;47007;49.252;8.904;2022-07-29T08:58:23;4.80;;;3.45;;
10637;SDS011;47007;49.252;8.904;2022-07-29T09:00:52;7.15;;;4.38;;
10637;SDS011;47007;49.252;8.904;2022-07-29T09:03:31;3.47;;;3.28;;
10637;SDS011;47007;49.252;8.904;2022-07-29T09:06:00;3.72;;;3.42;;
10637;SDS011;47007;49.252;8.904;2022-07-29T09:08:28;4.85;;;3.40;;
10637;SDS011;47007;49.252;8.904;2022-07-29T09:10:54;3.42;;;3.15;;
10637;SDS011;47007;49.252;8.904;2022-07-29T09:13:29;4.75;;;3.75;;
10637;SDS011;47007;49.252;8.904;2022-07-29T09:15:56;4.38;;;3.97;;
10637;SDS011;47007;49.252;8.904;2022-07-29T09:21:03;3.60;;;3.40;;
10637;SDS011;47007;49.252;8.904;2022-07-29T09:26:41;4.20;;;3.70;;
10637;SDS011;47007;49.252;8.904;2022-07-29T09:29:11;5.43;;;4.25;;
10637;SDS011;47007;49.252;8.904;2022-07-29T09:31:46;3.72;;;3.45;;
10637;SDS011;47007;49.252;8.904;2022-07-29T09:34:15;4.60;;;4.05;;
10637;SDS011;47007;49.252;8.904;2022-07-29T09:36:47;4.03;;;3.72;;
10637;SDS011;47007;49.252;8.904;2022-07-29T09:39:29;4.38;;;3.95;;
10637;SDS011;47007;49.252;8.904;2022-07-29T09:41:56;7.57;;;4.28;;
10637;SDS011;47007;49.252;8.904;2022-07-29T09:44:24;4.15;;;3.75;;
10637;SDS011;47007;49.252;8.904;2022-07-29T09:47:02;4.43;;;3.92;;
10637;SDS011;47007;49.252;8.904;2022-07-29T09:49:34;4.57;;;4.18;;
10637;SDS011;47007;49.252;8.904;2022-07-29T09:52:06;4.30;;;3.90;;
10637;SDS011;47007;49.252;8.904;2022-07-29T09:54:35;4.65;;;3.90;;
10637;SDS011;47007;49.252;8.904;2022-07-29T09:57:09;4.43;;;4.13;;
10637;SDS011;47007;49.252;8.904;2022-07-29T10:02:31;4.00;;;3.70;;
10637;SDS011;47007;49.252;8.904;2022-07-29T10:05:01;3.90;;;3.60;;
10637;SDS011;47007;49.252;8.904;2022-07-29T10:12:57;4.00;;;3.70;;
10637;SDS011;47007;49.252;8.904;2022-07-29T10:15:33;4.55;;;4.20;;
10637;SDS011;47007;49.252;8.904;2022-07-29T10:18:07;5.80;;;4.28;;
10637;SDS011;47007;49.252;8.904;2022-07-29T10:20:35;4.75;;;4.30;;
10637;SDS011;47007;49.252;8.904;2022-07-29T10:23:02;4.32;;;4.03;;
10637;SDS011;47007;49.252;8.904;2022-07-29T10:25:29;3.47;;;3.28;;
10637;SDS011;47007;49.252;8.904;2022-07-29T10:27:57;4.00;;;3.65;;
10637;SDS011;47007;49.252;8.904;2022-07-29T10:30:24;5.43;;;3.72;;
10637;SDS011;47007;49.252;8.904;2022-07-29T10:38:45;3.47;;;3.17;;
10637;SDS011;47007;49.252;8.904;2022-07-29T10:43:56;5.22;;;3.65;;
10637;SDS011;47007;49.252;8.904;2022-07-29T10:46:25;4.85;;;3.60;;
10637;SDS011;47007;49.252;8.904;2022-07-29T10:54:19;4.10;;;3.67;;
10637;SDS011;47007;49.252;8.904;2022-07-29T11:02:43;3.70;;;3.50;;
10637;SDS011;47007;49.252;8.904;2022-07-29T11:05:30;5.18;;;3.35;;
10637;SDS011;47007;49.252;8.904;2022-07-29T11:08:21;5.05;;;4.00;;
10637;SDS011;47007;49.252;8.904;2022-07-29T11:11:30;4.43;;;3.50;;
10637;SDS011;47007;49.252;8.904;2022-07-29T11:13:48;4.53;;;3.40;;
10637;SDS011;47007;49.252;8.904;2022-07-29T11:16:22;3.50;;;3.20;;
10637;SDS011;47007;49.252;8.904;2022-07-29T11:21:59;5.40;;;3.65;;
10637;SDS011;47007;49.252;8.904;2022-07-29T11:24:29;5.18;;;3.40;;
10637;SDS011;47007;49.252;8.904;2022-07-29T11:27:14;4.57;;;3.90;;
10637;SDS011;47007;49.252;8.904;2022-07-29T11:29:52;3.40;;;3.20;;
10637;SDS011;47007;49.252;8.904;2022-07-29T11:32:19;4.35;;;3.33;;
10637;SDS011;47007;49.252;8.904;2022-07-29T11:34:49;4.20;;;3.80;;
10637;SDS011;47007;49.252;8.904;2022-07-29T11:43:46;4.25;;;3.88;;
10637;SDS011;47007;49.252;8.904;2022-07-29T11:46:17;4.30;;;3.65;;
10637;SDS011;47007;49.252;8.904;2022-07-29T11:49:04;3.92;;;3.63;;
10637;SDS011;47007;49.252;8.904;2022-07-29T11:51:38;3.90;;;3.60;;
10637;SDS011;47007;49.252;8.904;2022-07-29T11:54:14;3.70;;;3.40;;
10637;SDS011;47007;49.252;8.904;2022-07-29T11:57:08;4.20;;;3.30;;
10637;SDS011;47007;49.252;8.904;2022-07-29T11:59:42;3.22;;;3.03;;
10637;SDS011;47007;49.252;8.904;2022-07-29T12:02:11;3.50;;;3.00;;
10637;SDS011;47007;49.252;8.904;2022-07-29T12:05:31;4.15;;;3.03;;
10637;SDS011;47007;49.252;8.904;2022-07-29T12:08:12;4.93;;;3.22;;
10637;SDS011;47007;49.252;8.904;2022-07-29T12:10:46;2.90;;;2.70;;
10637;SDS011;47007;49.252;8.904;2022-07-29T12:13:14;3.33;;;3.05;;
10637;SDS011;47007;49.252;8.904;2022-07-29T12:15:50;3.05;;;2.72;;
10637;SDS011;47007;49.252;8.904;2022-07-29T12:18:25;4.07;;;3.30;;
10637;SDS011;47007;49.252;8.904;2022-07-29T12:20:56;3.60;;;3.30;;
10637;SDS011;47007;49.252;8.904;2022-07-29T12:23:30;3.90;;;3.53;;
10637;SDS011;47007;49.252;8.904;2022-07-29T12:26:00;4.00;;;3.25;;
10637;SDS011;47007;49.252;8.904;2022-07-29T12:28:37;3.50;;;2.90;;
10637;SDS011;47007;49.252;8.904;2022-07-29T12:31:14;3.15;;;2.95;;
10637;SDS011;47007;49.252;8.904;2022-07-29T12:34:01;5.25;;;3.70;;
10637;SDS011;47007;49.252;8.904;2022-07-29T12:36:28;5.85;;;3.38;;
10637;SDS011;47007;49.252;8.904;2022-07-29T12:38:55;3.10;;;2.90;;
10637;SDS011;47007;49.252;8.904;2022-07-29T12:41:22;3.80;;;3.50;;
10637;SDS011;47007;49.252;8.904;2022-07-29T12:43:55;6.55;;;2.70;;
10637;SDS011;47007;49.252;8.904;2022-07-29T12:46:40;3.42;;;3.10;;
10637;SDS011;47007;49.252;8.904;2022-07-29T12:49:07;5.43;;;3.00;;
10637;SDS011;47007;49.252;8.904;2022-07-29T12:51:37;6.80;;;3.17;;
10637;SDS011;47007;49.252;8.904;2022-07-29T12:54:09;5.10;;;2.70;;
10637;SDS011;47007;49.252;8.904;2022-07-29T12:56:37;6.93;;;3.03;;
10637;SDS011;47007;49.252;8.904;2022-07-29T12:59:14;5.55;;;2.92;;
10637;SDS011;47007;49.252;8.904;2022-07-29T13:01:41;3.35;;;2.15;;
10637;SDS011;47007;49.252;8.904;2022-07-29T13:04:07;5.90;;;3.15;;
10637;SDS011;47007;49.252;8.904;2022-07-29T13:09:19;3.47;;;2.20;;
10637;SDS011;47007;49.252;8.904;2022-07-29T13:11:50;4.03;;;2.85;;
10637;SDS011;47007;49.252;8.904;2022-07-29T13:14:35;3.42;;;2.60;;
10637;SDS011;47007;49.252;8.904;2022-07-29T13:22:12;4.57;;;2.58;;
10637;SDS011;47007;49.252;8.904;2022-07-29T13:24:48;2.80;;;2.50;;
10637;SDS011;47007;49.252;8.904;2022-07-29T13:27:16;3.58;;;2.75;;
10637;SDS011;47007;49.252;8.904;2022-07-29T13:29:44;6.00;;;2.70;;
10637;SDS011;47007;49.252;8.904;2022-07-29T13:32:11;5.15;;;3.08;;
10637;SDS011;47007;49.252;8.904;2022-07-29T13:34:38;2.88;;;2.65;;
10637;SDS011;47007;49.252;8.904;2022-07-29T13:37:05;3.00;;;2.67;;
10637;SDS011;47007;49.252;8.904;2022-07-29T13:39:32;8.23;;;3.20;;
10637;SDS011;47007;49.252;8.904;2022-07-29T13:42:08;3.20;;;2.53;;
10637;SDS011;47007;49.252;8.904;2022-07-29T13:44:36;3.47;;;3.00;;
10637;SDS011;47007;49.252;8.904;2022-07-29T13:47:03;3.15;;;2.65;;
10637;SDS011;47007;49.252;8.904;2022-07-29T13:49:30;3.63;;;2.50;;
10637;SDS011;47007;49.252;8.904;2022-07-29T13:51:56;2.92;;;2.72;;
10637;SDS011;47007;49.252;8.904;2022-07-29T13:54:24;9.82;;;3.00;;
10637;SDS011;47007;49.252;8.904;2022-07-29T13:56:52;4.30;;;2.47;;
10637;SDS011;47007;49.252;8.904;2022-07-29T13:59:19;3.17;;;2.92;;
10637;SDS011;47007;49.252;8.904;2022-07-29T14:01:46;3.65;;;2.53;;
10637;SDS011;47007;49.252;8.904;2022-07-29T14:04:14;5.00;;;2.47;;
10637;SDS011;47007;49.252;8.904;2022-07-29T14:06:41;2.78;;;2.58;;
10637;SDS011;47007;49.252;8.904;2022-07-29T14:09:09;2.88;;;2.55;;
10637;SDS011;47007;49.252;8.904;2022-07-29T14:11:35;4.38;;;2.60;;
10637;SDS011;47007;49.252;8.904;2022-07-29T14:14:04;4.78;;;2.63;;
10637;SDS011;47007;49.252;8.904;2022-07-29T14:16:34;2.40;;;2.30;;
10637;SDS011;47007;49.252;8.904;2022-07-29T14:19:07;3.97;;;2.92;;
10637;SDS011;47007;49.252;8.904;2022-07-29T14:21:34;2.25;;;2.03;;
10637;SDS011;47007;49.252;8.904;2022-07-29T14:24:02;3.90;;;2.25;;
10637;SDS011;47007;49.252;8.904;2022-07-29T14:26:43;2.88;;;2.50;;
10637;SDS011;47007;49.252;8.904;2022-07-29T14:29:11;3.05;;;2.55;;
10637;SDS011;47007;49.252;8.904;2022-07-29T14:31:38;4.55;;;2.15;;
10637;SDS011;47007;49.252;8.904;2022-07-29T14:34:05;4.25;;;2.33;;
10637;SDS011;47007;49.252;8.904;2022-07-29T14:36:32;4.35;;;2.40;;
10637;SDS011;47007;49.252;8.904;2022-07-29T14:38:59;5.22;;;2.08;;
10637;SDS011;47007;49.252;8.904;2022-07-29T14:41:25;3.42;;;2.00;;
10637;SDS011;47007;49.252;8.904;2022-07-29T14:43:54;1.67;;;1.58;;
10637;SDS011;47007;49.252;8.904;2022-07-29T14:46:36;2.55;;;1.70;;
10637;SDS011;47007;49.252;8.904;2022-07-29T14:49:03;2.83;;;1.80;;
10637;SDS011;47007;49.252;8.904;2022-07-29T14:51:32;1.98;;;1.70;;
10637;SDS011;47007;49.252;8.904;2022-07-29T14:53:59;2.53;;;1.83;;
10637;SDS011;47007;49.252;8.904;2022-07-29T14:56:26;2.38;;;1.73;;
10637;SDS011;47007;49.252;8.904;2022-07-29T14:59:03;6.78;;;1.92;;
10637;SDS011;47007;49.252;8.904;2022-07-29T15:01:30;2.75;;;1.73;;
10637;SDS011;47007;49.252;8.904;2022-07-29T15:03:56;2.00;;;1.75;;
10637;SDS011;47007;49.252;8.904;2022-07-29T15:06:25;1.60;;;1.50;;
10637;SDS011;47007;49.252;8.904;2022-07-29T15:08:52;2.70;;;2.22;;
10637;SDS011;47007;49.252;8.904;2022-07-29T15:11:20;3.00;;;1.80;;
10637;SDS011;47007;49.252;8.904;2022-07-29T15:13:46;4.10;;;1.50;;
10637;SDS011;47007;49.252;8.904;2022-07-29T15:16:13;1.33;;;1.23;;
10637;SDS011;47007;49.252;8.904;2022-07-29T15:18:40;2.92;;;1.05;;
10637;SDS011;47007;49.252;8.904;2022-07-29T15:21:11;2.35;;;1.20;;
10637;SDS011;47007;49.252;8.904;2022-07-29T15:23:38;3.50;;;1.40;;
10637;SDS011;47007;49.252;8.904;2022-07-29T15:26:05;2.30;;;1.23;;
10637;SDS011;47007;49.252;8.904;2022-07-29T15:28:32;1.20;;;1.10;;
10637;SDS011;47007;49.252;8.904;2022-07-29T15:30:58;2.78;;;1.50;;
10637;SDS011;47007;49.252;8.904;2022-07-29T15:33:25;1.42;;;1.27;;
10637;SDS011;47007;49.252;8.904;2022-07-29T15:35:52;2.83;;;1.40;;
10637;SDS011;47007;49.252;8.904;2022-07-29T15:38:18;1.58;;;1.10;;
10637;SDS011;47007;49.252;8.904;2022-07-29T15:40:54;3.67;;;1.33;;
10637;SDS011;47007;49.252;8.904;2022-07-29T15:43:21;4.47;;;1.13;;
10637;SDS011;47007;49.252;8.904;2022-07-29T15:45:48;6.30;;;1.10;;
10637;SDS011;47007;49.252;8.904;2022-07-29T15:48:33;1.55;;;1.10;;
10637;SDS011;47007;49.252;8.904;2022-07-29T15:51:04;1.75;;;1.00;;
10637;SDS011;47007;49.252;8.904;2022-07-29T15:53:31;1.50;;;1.00;;
10637;SDS011;47007;49.252;8.904;2022-07-29T15:56:00;2.33;;;1.38;;
10637;SDS011;47007;49.252;8.904;2022-07-29T15:58:27;2.92;;;1.33;;
10637;SDS011;47007;49.252;8.904;2022-07-29T16:00:54;1.83;;;1.45;;
10637;SDS011;47007;49.252;8.904;2022-07-29T16:03:21;4.97;;;1.10;;
10637;SDS011;47007;49.252;8.904;2022-07-29T16:05:48;3.22;;;1.35;;
10637;SDS011;47007;49.252;8.904;2022-07-29T16:08:15;2.70;;;1.50;;
10637;SDS011;47007;49.252;8.904;2022-07-29T16:10:41;2.00;;;1.15;;
10637;SDS011;47007;49.252;8.904;2022-07-29T16:13:08;1.85;;;1.30;;
10637;SDS011;47007;49.252;8.904;2022-07-29T16:15:35;1.90;;;1.08;;